Country
Station

 

Weather  for  Miami, Miami International Airport  -  United States    United States

  
30 °C (86 °F)
    
 
 

Current METAR for Miami, Miami International Airport is :

KMIA 211453Z 13006KT 10SM SCT034 30/22 A2998 RMK AO2 SLP154 T03000217 51009

 

This is a report for Miami, Miami International Airport - United States.
 
The report was made 56 minutes ago, at 14:53 UTC .
The wind was blowing at a speed of 3.1 meters per second (6.9 miles per hour) from southeast (130°).
 
The temperature was 30 °C (86 °F), with a dew-point at 22 °C (72 °F).
The temperature felt like 33 °C (92 °F).
 
The atmospheric pressure was 1015 hPa (29.98 inHg).
The relative humidity was 62.3%.
 
There were scattered clouds at a height of 1036 meters (3400 feet).
 
The overall visibility was 16.1 kilometers (10.0 miles).
 

 
 
 
 

Country :   A   B   C   D   E   F   G   H   I   J   K   L   M   N   O   P   Q   R   S   T   U   V   W   Y   Z

 

Site Info  |  Disclaimer  |  Credits  |  Privacy
Contact us  |  Add to favorites
© 2013-2019 METARs - All rights reserved